sensor_id;sensor_type;location;lat;lon;timestamp;pressure;altitude;pressure_sealevel;temperature;humidity
70589;BME280;58152;49.202;18.744;2023-03-26T00:02:04;96622.59;;;9.23;53.49
70589;BME280;58152;49.202;18.744;2023-03-26T00:04:30;96630.53;;;9.21;53.55
70589;BME280;58152;49.202;18.744;2023-03-26T00:06:58;96631.41;;;9.20;53.57
70589;BME280;58152;49.202;18.744;2023-03-26T00:09:23;96619.34;;;9.18;53.33
70589;BME280;58152;49.202;18.744;2023-03-26T00:11:49;96626.19;;;9.20;53.57
70589;BME280;58152;49.202;18.744;2023-03-26T00:14:14;96629.75;;;9.19;53.61
70589;BME280;58152;49.202;18.744;2023-03-26T00:16:41;96623.66;;;9.19;53.68
70589;BME280;58152;49.202;18.744;2023-03-26T00:19:07;96622.13;;;9.14;53.77
70589;BME280;58152;49.202;18.744;2023-03-26T00:21:33;96634.03;;;9.20;54.15
70589;BME280;58152;49.202;18.744;2023-03-26T00:24:01;96626.50;;;9.14;54.06
70589;BME280;58152;49.202;18.744;2023-03-26T00:26:29;96628.91;;;9.19;53.90
70589;BME280;58152;49.202;18.744;2023-03-26T00:28:57;96613.56;;;9.11;54.37
70589;BME280;58152;49.202;18.744;2023-03-26T00:31:24;96615.34;;;9.10;54.30
70589;BME280;58152;49.202;18.744;2023-03-26T00:33:51;96622.50;;;9.07;53.93
70589;BME280;58152;49.202;18.744;2023-03-26T00:36:20;96618.38;;;9.03;54.44
70589;BME280;58152;49.202;18.744;2023-03-26T00:38:46;96615.91;;;9.00;54.22
70589;BME280;58152;49.202;18.744;2023-03-26T00:41:15;96622.59;;;9.05;54.33
70589;BME280;58152;49.202;18.744;2023-03-26T00:43:51;96614.03;;;9.02;54.12
70589;BME280;58152;49.202;18.744;2023-03-26T00:46:21;96612.44;;;8.99;54.47
70589;BME280;58152;49.202;18.744;2023-03-26T00:48:46;96612.44;;;8.99;54.62
70589;BME280;58152;49.202;18.744;2023-03-26T00:51:13;96605.53;;;8.98;54.59
70589;BME280;58152;49.202;18.744;2023-03-26T00:53:40;96608.19;;;8.97;54.57
70589;BME280;58152;49.202;18.744;2023-03-26T00:56:07;96604.50;;;9.01;54.46
70589;BME280;58152;49.202;18.744;2023-03-26T00:58:33;96604.00;;;8.94;54.27
70589;BME280;58152;49.202;18.744;2023-03-26T01:01:01;96598.91;;;8.91;55.12
70589;BME280;58152;49.202;18.744;2023-03-26T01:03:29;96600.66;;;8.90;54.58
70589;BME280;58152;49.202;18.744;2023-03-26T01:06:01;96596.28;;;8.91;54.11
70589;BME280;58152;49.202;18.744;2023-03-26T01:08:39;96602.28;;;8.93;54.50
70589;BME280;58152;49.202;18.744;2023-03-26T01:11:13;96584.38;;;8.85;54.89
70589;BME280;58152;49.202;18.744;2023-03-26T01:13:51;96589.66;;;8.84;54.80
70589;BME280;58152;49.202;18.744;2023-03-26T01:16:40;96592.34;;;8.82;55.42
70589;BME280;58152;49.202;18.744;2023-03-26T01:19:11;96591.66;;;8.79;55.07
70589;BME280;58152;49.202;18.744;2023-03-26T01:21:38;96580.59;;;8.74;54.90
70589;BME280;58152;49.202;18.744;2023-03-26T01:24:05;96589.13;;;8.77;54.83
70589;BME280;58152;49.202;18.744;2023-03-26T01:37:52;96557.38;;;8.68;55.19
70589;BME280;58152;49.202;18.744;2023-03-26T01:40:40;96561.81;;;8.65;55.69
70589;BME280;58152;49.202;18.744;2023-03-26T01:43:23;96571.59;;;8.62;55.30
70589;BME280;58152;49.202;18.744;2023-03-26T01:45:52;96560.53;;;8.57;55.38
70589;BME280;58152;49.202;18.744;2023-03-26T01:48:20;96568.19;;;8.60;55.65
70589;BME280;58152;49.202;18.744;2023-03-26T01:50:52;96564.97;;;8.55;55.55
70589;BME280;58152;49.202;18.744;2023-03-26T01:53:20;96561.38;;;8.57;55.05
70589;BME280;58152;49.202;18.744;2023-03-26T01:56:08;96563.91;;;8.59;55.77
70589;BME280;58152;49.202;18.744;2023-03-26T01:58:40;96561.44;;;8.56;55.28
70589;BME280;58152;49.202;18.744;2023-03-26T02:01:29;96570.19;;;8.55;55.72
70589;BME280;58152;49.202;18.744;2023-03-26T02:07:20;96571.28;;;8.51;56.22
70589;BME280;58152;49.202;18.744;2023-03-26T02:09:52;96572.28;;;8.48;55.46
70589;BME280;58152;49.202;18.744;2023-03-26T02:12:21;96577.19;;;8.54;55.71
70589;BME280;58152;49.202;18.744;2023-03-26T02:14:48;96567.13;;;8.47;55.92
70589;BME280;58152;49.202;18.744;2023-03-26T02:17:14;96574.81;;;8.50;55.99
70589;BME280;58152;49.202;18.744;2023-03-26T02:19:41;96557.91;;;8.39;56.05
70589;BME280;58152;49.202;18.744;2023-03-26T02:22:11;96569.72;;;8.47;55.88
70589;BME280;58152;49.202;18.744;2023-03-26T02:24:40;96568.13;;;8.44;56.01
70589;BME280;58152;49.202;18.744;2023-03-26T02:27:06;96572.28;;;8.48;55.65
70589;BME280;58152;49.202;18.744;2023-03-26T02:29:35;96561.00;;;8.48;56.03
70589;BME280;58152;49.202;18.744;2023-03-26T02:32:07;96562.81;;;8.46;56.05
70589;BME280;58152;49.202;18.744;2023-03-26T02:34:33;96552.59;;;8.41;55.57
70589;BME280;58152;49.202;18.744;2023-03-26T02:36:59;96548.19;;;8.42;56.26
70589;BME280;58152;49.202;18.744;2023-03-26T02:39:25;96551.44;;;8.47;56.16
70589;BME280;58152;49.202;18.744;2023-03-26T02:41:51;96535.34;;;8.37;56.37
70589;BME280;58152;49.202;18.744;2023-03-26T02:44:16;96546.66;;;8.37;56.24
70589;BME280;58152;49.202;18.744;2023-03-26T02:46:41;96541.44;;;8.37;55.74
70589;BME280;58152;49.202;18.744;2023-03-26T02:49:08;96547.59;;;8.36;55.68
70589;BME280;58152;49.202;18.744;2023-03-26T02:51:34;96543.34;;;8.34;56.41
70589;BME280;58152;49.202;18.744;2023-03-26T02:54:01;96551.09;;;8.35;55.82
70589;BME280;58152;49.202;18.744;2023-03-26T02:56:27;96548.47;;;8.35;55.80
70589;BME280;58152;49.202;18.744;2023-03-26T02:58:53;96553.66;;;8.37;55.86
70589;BME280;58152;49.202;18.744;2023-03-26T03:01:18;96543.34;;;8.34;56.32
70589;BME280;58152;49.202;18.744;2023-03-26T03:03:44;96533.13;;;8.29;56.45
70589;BME280;58152;49.202;18.744;2023-03-26T03:06:11;96551.22;;;8.32;55.87
70589;BME280;58152;49.202;18.744;2023-03-26T03:08:37;96548.78;;;8.29;56.41
70589;BME280;58152;49.202;18.744;2023-03-26T03:11:09;96539.41;;;8.25;55.86
70589;BME280;58152;49.202;18.744;2023-03-26T03:13:35;96537.63;;;8.26;56.33
70589;BME280;58152;49.202;18.744;2023-03-26T03:16:00;96543.72;;;8.26;56.23
70589;BME280;58152;49.202;18.744;2023-03-26T03:18:26;96538.63;;;8.23;56.01
70589;BME280;58152;49.202;18.744;2023-03-26T03:20:51;96549.88;;;8.25;56.31
70589;BME280;58152;49.202;18.744;2023-03-26T03:23:18;96550.97;;;8.20;56.15
70589;BME280;58152;49.202;18.744;2023-03-26T03:25:44;96549.28;;;8.19;55.82
70589;BME280;58152;49.202;18.744;2023-03-26T03:28:09;96555.13;;;8.24;55.91
70589;BME280;58152;49.202;18.744;2023-03-26T03:30:35;96542.38;;;8.18;56.07
70589;BME280;58152;49.202;18.744;2023-03-26T03:33:02;96539.91;;;8.14;56.56
70589;BME280;58152;49.202;18.744;2023-03-26T03:35:28;96541.75;;;8.12;55.91
70589;BME280;58152;49.202;18.744;2023-03-26T03:37:57;96540.75;;;8.15;56.24
70589;BME280;58152;49.202;18.744;2023-03-26T03:40:23;96540.91;;;8.12;56.35
70589;BME280;58152;49.202;18.744;2023-03-26T03:42:49;96549.69;;;8.11;56.65
70589;BME280;58152;49.202;18.744;2023-03-26T03:45:14;96551.28;;;8.13;56.30
70589;BME280;58152;49.202;18.744;2023-03-26T03:47:39;96540.13;;;8.10;56.18
70589;BME280;58152;49.202;18.744;2023-03-26T03:50:05;96545.22;;;8.13;56.41
70589;BME280;58152;49.202;18.744;2023-03-26T03:52:31;96538.59;;;8.06;56.93
70589;BME280;58152;49.202;18.744;2023-03-26T03:54:57;96544.47;;;8.11;56.76
70589;BME280;58152;49.202;18.744;2023-03-26T03:57:25;96536.69;;;8.09;56.20
70589;BME280;58152;49.202;18.744;2023-03-26T03:59:51;96549.69;;;8.11;56.75
70589;BME280;58152;49.202;18.744;2023-03-26T04:02:17;96551.38;;;8.12;56.73
70589;BME280;58152;49.202;18.744;2023-03-26T04:04:51;96538.34;;;8.10;56.54
70589;BME280;58152;49.202;18.744;2023-03-26T04:07:17;96543.81;;;8.06;56.44
70589;BME280;58152;49.202;18.744;2023-03-26T04:09:42;96539.50;;;8.05;56.60
70589;BME280;58152;49.202;18.744;2023-03-26T04:12:08;96551.66;;;8.06;56.55
70589;BME280;58152;49.202;18.744;2023-03-26T04:14:34;96542.13;;;8.05;57.13
70589;BME280;58152;49.202;18.744;2023-03-26T04:17:00;96546.38;;;8.07;56.63
70589;BME280;58152;49.202;18.744;2023-03-26T04:19:26;96547.44;;;8.03;57.09
70589;BME280;58152;49.202;18.744;2023-03-26T04:21:52;96552.56;;;8.05;57.43
70589;BME280;58152;49.202;18.744;2023-03-26T04:24:18;96547.56;;;8.00;56.99
70589;BME280;58152;49.202;18.744;2023-03-26T04:26:46;96552.78;;;8.00;57.01
70589;BME280;58152;49.202;18.744;2023-03-26T04:29:15;96545.97;;;7.98;57.33
70589;BME280;58152;49.202;18.744;2023-03-26T04:31:42;96552.09;;;7.97;57.41
70589;BME280;58152;49.202;18.744;2023-03-26T04:34:15;96551.19;;;7.98;56.94
70589;BME280;58152;49.202;18.744;2023-03-26T04:36:51;96553.81;;;7.98;57.28
70589;BME280;58152;49.202;18.744;2023-03-26T04:39:19;96552.16;;;7.95;57.09
70589;BME280;58152;49.202;18.744;2023-03-26T04:41:46;96560.78;;;7.97;56.94
70589;BME280;58152;49.202;18.744;2023-03-26T04:44:12;96560.84;;;7.96;57.29
70589;BME280;58152;49.202;18.744;2023-03-26T04:46:41;96556.34;;;7.99;57.05
70589;BME280;58152;49.202;18.744;2023-03-26T04:49:08;96548.72;;;7.95;56.88
70589;BME280;58152;49.202;18.744;2023-03-26T04:51:36;96558.94;;;7.99;56.96
70589;BME280;58152;49.202;18.744;2023-03-26T04:54:03;96552.97;;;7.97;56.89
70589;BME280;58152;49.202;18.744;2023-03-26T04:59:20;96549.41;;;7.98;56.80
70589;BME280;58152;49.202;18.744;2023-03-26T05:01:53;96557.25;;;7.98;56.86
70589;BME280;58152;49.202;18.744;2023-03-26T05:04:19;96549.56;;;7.95;57.29
70589;BME280;58152;49.202;18.744;2023-03-26T05:06:44;96552.16;;;7.95;57.22
70589;BME280;58152;49.202;18.744;2023-03-26T05:09:10;96554.69;;;7.97;56.91
70589;BME280;58152;49.202;18.744;2023-03-26T05:11:35;96553.81;;;7.98;57.00
70589;BME280;58152;49.202;18.744;2023-03-26T05:14:01;96564.31;;;7.96;56.80
70589;BME280;58152;49.202;18.744;2023-03-26T05:16:27;96557.41;;;7.95;56.92
70589;BME280;58152;49.202;18.744;2023-03-26T05:18:53;96560.78;;;7.97;57.26
70589;BME280;58152;49.202;18.744;2023-03-26T05:21:18;96557.31;;;7.97;57.08
70589;BME280;58152;49.202;18.744;2023-03-26T05:23:44;96554.56;;;8.00;57.52
70589;BME280;58152;49.202;18.744;2023-03-26T05:26:10;96558.81;;;8.02;56.86
70589;BME280;58152;49.202;18.744;2023-03-26T05:28:36;96559.78;;;8.00;56.99
70589;BME280;58152;49.202;18.744;2023-03-26T05:31:01;96563.09;;;8.03;56.93
70589;BME280;58152;49.202;18.744;2023-03-26T05:33:27;96566.47;;;8.05;57.13
70589;BME280;58152;49.202;18.744;2023-03-26T05:36:03;96570.81;;;8.06;57.72
70589;BME280;58152;49.202;18.744;2023-03-26T05:38:29;96570.94;;;8.03;57.65
70589;BME280;58152;49.202;18.744;2023-03-26T05:41:00;96563.25;;;8.00;57.22
70589;BME280;58152;49.202;18.744;2023-03-26T05:43:29;96565.81;;;8.02;57.69
70589;BME280;58152;49.202;18.744;2023-03-26T05:45:54;96561.47;;;8.01;57.82
70589;BME280;58152;49.202;18.744;2023-03-26T05:48:20;96559.56;;;8.04;57.21
70589;BME280;58152;49.202;18.744;2023-03-26T05:50:48;96551.72;;;8.04;57.68
70589;BME280;58152;49.202;18.744;2023-03-26T05:53:13;96557.75;;;8.06;57.56
70589;BME280;58152;49.202;18.744;2023-03-26T05:55:39;96560.19;;;8.09;57.30
70589;BME280;58152;49.202;18.744;2023-03-26T05:58:05;96559.44;;;8.07;57.37
70589;BME280;58152;49.202;18.744;2023-03-26T06:00:30;96564.50;;;8.10;57.09
70589;BME280;58152;49.202;18.744;2023-03-26T06:02:57;96562.66;;;8.12;57.61
70589;BME280;58152;49.202;18.744;2023-03-26T06:05:23;96562.81;;;8.09;57.28
70589;BME280;58152;49.202;18.744;2023-03-26T06:07:50;96563.59;;;8.11;57.77
70589;BME280;58152;49.202;18.744;2023-03-26T06:10:16;96561.75;;;8.13;57.86
70589;BME280;58152;49.202;18.744;2023-03-26T06:12:41;96559.97;;;8.14;57.71
70589;BME280;58152;49.202;18.744;2023-03-26T06:15:07;96554.75;;;8.14;57.91
70589;BME280;58152;49.202;18.744;2023-03-26T06:17:33;96557.09;;;8.20;57.66
70589;BME280;58152;49.202;18.744;2023-03-26T06:20:03;96556.16;;;8.21;57.91
70589;BME280;58152;49.202;18.744;2023-03-26T06:22:31;96560.44;;;8.22;57.93
70589;BME280;58152;49.202;18.744;2023-03-26T06:24:56;96558.53;;;8.26;57.36
70589;BME280;58152;49.202;18.744;2023-03-26T06:27:22;96551.47;;;8.28;57.04
70589;BME280;58152;49.202;18.744;2023-03-26T06:29:47;96557.53;;;8.28;57.35
70589;BME280;58152;49.202;18.744;2023-03-26T06:32:13;96558.53;;;8.26;57.18
70589;BME280;58152;49.202;18.744;2023-03-26T06:34:38;96562.63;;;8.31;57.57
70589;BME280;58152;49.202;18.744;2023-03-26T06:37:04;96562.63;;;8.31;57.96
70589;BME280;58152;49.202;18.744;2023-03-26T06:39:30;96561.50;;;8.37;57.29
70589;BME280;58152;49.202;18.744;2023-03-26T06:41:55;96562.28;;;8.39;57.69
70589;BME280;58152;49.202;18.744;2023-03-26T06:44:20;96559.44;;;8.44;57.02
70589;BME280;58152;49.202;18.744;2023-03-26T06:46:46;96554.03;;;8.47;57.16
70589;BME280;58152;49.202;18.744;2023-03-26T06:49:11;96550.44;;;8.49;57.36
70589;BME280;58152;49.202;18.744;2023-03-26T06:51:37;96548.81;;;8.47;57.09
70589;BME280;58152;49.202;18.744;2023-03-26T06:54:04;96543.66;;;8.45;57.26
70589;BME280;58152;49.202;18.744;2023-03-26T06:56:32;96558.38;;;8.48;57.01
70589;BME280;58152;49.202;18.744;2023-03-26T06:58:57;96556.88;;;8.42;57.10
70589;BME280;58152;49.202;18.744;2023-03-26T07:01:23;96554.97;;;8.46;57.26
70589;BME280;58152;49.202;18.744;2023-03-26T07:03:48;96558.44;;;8.46;56.83
70589;BME280;58152;49.202;18.744;2023-03-26T07:06:14;96568.84;;;8.48;57.46
70589;BME280;58152;49.202;18.744;2023-03-26T07:08:39;96559.34;;;8.45;57.24
70589;BME280;58152;49.202;18.744;2023-03-26T07:11:05;96574.06;;;8.48;57.26
70589;BME280;58152;49.202;18.744;2023-03-26T07:13:31;96575.03;;;8.45;57.38
70589;BME280;58152;49.202;18.744;2023-03-26T07:15:56;96568.28;;;8.41;57.25
70589;BME280;58152;49.202;18.744;2023-03-26T07:18:22;96575.97;;;8.44;57.35
70589;BME280;58152;49.202;18.744;2023-03-26T07:20:47;96572.44;;;8.45;56.95
70589;BME280;58152;49.202;18.744;2023-03-26T07:23:13;96560.28;;;8.44;56.93
70589;BME280;58152;49.202;18.744;2023-03-26T07:25:44;96565.44;;;8.46;57.25
70589;BME280;58152;49.202;18.744;2023-03-26T07:31:18;96573.75;;;8.54;56.65
70589;BME280;58152;49.202;18.744;2023-03-26T07:33:57;96574.69;;;8.53;56.92
70589;BME280;58152;49.202;18.744;2023-03-26T07:39:39;96567.69;;;8.53;56.65
70589;BME280;58152;49.202;18.744;2023-03-26T07:44:51;96572.81;;;8.55;56.29
70589;BME280;58152;49.202;18.744;2023-03-26T07:47:26;96569.44;;;8.53;56.68
70589;BME280;58152;49.202;18.744;2023-03-26T07:49:54;96563.19;;;8.55;56.74
70589;BME280;58152;49.202;18.744;2023-03-26T07:52:22;96555.22;;;8.58;56.25
70589;BME280;58152;49.202;18.744;2023-03-26T07:54:48;96564.59;;;8.62;56.60
70589;BME280;58152;49.202;18.744;2023-03-26T07:57:35;96573.81;;;8.70;56.41
70589;BME280;58152;49.202;18.744;2023-03-26T08:00:25;96564.91;;;8.74;56.16
70589;BME280;58152;49.202;18.744;2023-03-26T08:03:29;96547.44;;;8.74;56.18
70589;BME280;58152;49.202;18.744;2023-03-26T08:06:16;96560.03;;;8.83;56.05
70589;BME280;58152;49.202;18.744;2023-03-26T08:08:52;96551.91;;;8.89;56.55
70589;BME280;58152;49.202;18.744;2023-03-26T08:11:23;96552.41;;;8.96;55.94
70589;BME280;58152;49.202;18.744;2023-03-26T08:13:58;96551.25;;;9.02;56.12
70589;BME280;58152;49.202;18.744;2023-03-26T08:16:35;96536.72;;;8.96;55.71
70589;BME280;58152;49.202;18.744;2023-03-26T08:19:13;96553.72;;;9.05;55.55
70589;BME280;58152;49.202;18.744;2023-03-26T08:21:47;96537.09;;;9.06;56.10
70589;BME280;58152;49.202;18.744;2023-03-26T08:24:50;96533.38;;;9.10;55.59
70589;BME280;58152;49.202;18.744;2023-03-26T08:27:40;96534.91;;;9.14;56.00
70589;BME280;58152;49.202;18.744;2023-03-26T08:30:22;96523.53;;;9.15;55.75
70589;BME280;58152;49.202;18.744;2023-03-26T08:32:53;96524.22;;;9.19;55.49
70589;BME280;58152;49.202;18.744;2023-03-26T08:35:20;96542.28;;;9.23;55.22
70589;BME280;58152;49.202;18.744;2023-03-26T08:37:46;96536.13;;;9.24;54.94
70589;BME280;58152;49.202;18.744;2023-03-26T08:40:12;96525.59;;;9.26;54.84
70589;BME280;58152;49.202;18.744;2023-03-26T09:00:38;96515.13;;;9.57;53.04
70589;BME280;58152;49.202;18.744;2023-03-26T09:11:23;96495.88;;;9.74;53.21
70589;BME280;58152;49.202;18.744;2023-03-26T09:33:54;96504.75;;;9.87;52.38
70589;BME280;58152;49.202;18.744;2023-03-26T09:39:22;96483.44;;;9.93;52.47
70589;BME280;58152;49.202;18.744;2023-03-26T09:50:23;96500.56;;;10.31;51.70
70589;BME280;58152;49.202;18.744;2023-03-26T09:53:20;96491.34;;;10.24;51.77
70589;BME280;58152;49.202;18.744;2023-03-26T09:59:00;96496.34;;;10.12;51.90
70589;BME280;58152;49.202;18.744;2023-03-26T10:20:30;96457.22;;;10.84;50.23
70589;BME280;58152;49.202;18.744;2023-03-26T10:26:10;96459.38;;;11.20;50.18
70589;BME280;58152;49.202;18.744;2023-03-26T10:31:51;96459.38;;;11.20;50.35
70589;BME280;58152;49.202;18.744;2023-03-26T10:34:47;96463.78;;;11.19;49.41
70589;BME280;58152;49.202;18.744;2023-03-26T10:47:57;96423.28;;;12.19;47.11
70589;BME280;58152;49.202;18.744;2023-03-26T10:52:54;96419.72;;;11.93;48.70
70589;BME280;58152;49.202;18.744;2023-03-26T10:55:28;96424.97;;;11.93;47.80
70589;BME280;58152;49.202;18.744;2023-03-26T10:58:03;96424.97;;;11.93;47.84
70589;BME280;58152;49.202;18.744;2023-03-26T11:00:38;96420.50;;;12.08;47.36
70589;BME280;58152;49.202;18.744;2023-03-26T11:11:31;96401.38;;;12.18;45.19
70589;BME280;58152;49.202;18.744;2023-03-26T11:19:47;96408.81;;;12.52;45.73
70589;BME280;58152;49.202;18.744;2023-03-26T11:25:24;96402.25;;;12.32;45.09
70589;BME280;58152;49.202;18.744;2023-03-26T11:30:54;96404.03;;;12.82;45.57
70589;BME280;58152;49.202;18.744;2023-03-26T11:33:31;96401.13;;;13.73;43.84
70589;BME280;58152;49.202;18.744;2023-03-26T11:36:02;96403.41;;;14.26;42.62
70589;BME280;58152;49.202;18.744;2023-03-26T11:38:33;96390.03;;;13.81;43.64
70589;BME280;58152;49.202;18.744;2023-03-26T11:41:22;96377.66;;;14.05;40.42
70589;BME280;58152;49.202;18.744;2023-03-26T11:44:02;96364.88;;;13.88;41.38
70589;BME280;58152;49.202;18.744;2023-03-26T11:46:30;96359.88;;;13.61;43.20
70589;BME280;58152;49.202;18.744;2023-03-26T11:48:58;96342.97;;;14.22;42.67
70589;BME280;58152;49.202;18.744;2023-03-26T11:51:35;96351.22;;;14.53;40.79
70589;BME280;58152;49.202;18.744;2023-03-26T11:54:02;96341.16;;;14.81;41.82
70589;BME280;58152;49.202;18.744;2023-03-26T11:57:08;96330.38;;;15.38;39.29
70589;BME280;58152;49.202;18.744;2023-03-26T12:04:44;96326.47;;;15.21;41.46
70589;BME280;58152;49.202;18.744;2023-03-26T12:07:19;96318.38;;;15.45;39.99
70589;BME280;58152;49.202;18.744;2023-03-26T12:09:54;96328.91;;;14.91;39.80
70589;BME280;58152;49.202;18.744;2023-03-26T12:12:23;96317.63;;;14.66;41.51
70589;BME280;58152;49.202;18.744;2023-03-26T12:14:50;96319.53;;;14.87;40.97
70589;BME280;58152;49.202;18.744;2023-03-26T12:19:50;96305.28;;;15.33;40.05
70589;BME280;58152;49.202;18.744;2023-03-26T12:25:19;96310.09;;;16.03;36.73
70589;BME280;58152;49.202;18.744;2023-03-26T12:28:27;96292.88;;;16.30;35.22
70589;BME280;58152;49.202;18.744;2023-03-26T12:31:01;96290.47;;;15.64;38.62
70589;BME280;58152;49.202;18.744;2023-03-26T12:33:29;96281.06;;;15.28;39.29
70589;BME280;58152;49.202;18.744;2023-03-26T12:35:59;96274.91;;;15.70;39.22
70589;BME280;58152;49.202;18.744;2023-03-26T12:38:40;96270.72;;;15.68;39.13
70589;BME280;58152;49.202;18.744;2023-03-26T12:41:15;96264.69;;;15.98;38.09
70589;BME280;58152;49.202;18.744;2023-03-26T12:46:27;96260.84;;;15.38;37.99
70589;BME280;58152;49.202;18.744;2023-03-26T12:49:06;96244.00;;;15.39;37.75
70589;BME280;58152;49.202;18.744;2023-03-26T12:51:52;96243.59;;;15.55;37.17
70589;BME280;58152;49.202;18.744;2023-03-26T13:18:53;96223.06;;;14.60;38.36
70589;BME280;58152;49.202;18.744;2023-03-26T13:26:40;96212.38;;;15.81;35.83
70589;BME280;58152;49.202;18.744;2023-03-26T13:29:25;96195.19;;;15.96;35.19
70589;BME280;58152;49.202;18.744;2023-03-26T13:35:02;96199.97;;;15.28;34.74
70589;BME280;58152;49.202;18.744;2023-03-26T13:37:44;96194.69;;;14.96;36.60
70589;BME280;58152;49.202;18.744;2023-03-26T13:43:25;96196.19;;;14.66;36.73
70589;BME280;58152;49.202;18.744;2023-03-26T13:46:14;96186.56;;;14.77;36.04
70589;BME280;58152;49.202;18.744;2023-03-26T13:48:54;96200.56;;;14.88;36.92
70589;BME280;58152;49.202;18.744;2023-03-26T13:54:38;96203.13;;;14.79;36.56
70589;BME280;58152;49.202;18.744;2023-03-26T13:57:13;96194.03;;;14.71;38.07
70589;BME280;58152;49.202;18.744;2023-03-26T13:59:47;96180.31;;;14.78;38.04
70589;BME280;58152;49.202;18.744;2023-03-26T14:02:42;96186.34;;;14.68;37.10
70589;BME280;58152;49.202;18.744;2023-03-26T14:05:20;96184.81;;;14.55;36.64
70589;BME280;58152;49.202;18.744;2023-03-26T14:10:46;96180.22;;;14.45;38.21
70589;BME280;58152;49.202;18.744;2023-03-26T14:15:57;96173.16;;;14.23;38.07
70589;BME280;58152;49.202;18.744;2023-03-26T14:18:33;96178.91;;;14.29;36.34
70589;BME280;58152;49.202;18.744;2023-03-26T14:40:48;96155.16;;;14.29;38.30
70589;BME280;58152;49.202;18.744;2023-03-26T14:55:00;96123.66;;;13.82;38.91
70589;BME280;58152;49.202;18.744;2023-03-26T14:57:45;96120.31;;;13.80;37.88
70589;BME280;58152;49.202;18.744;2023-03-26T15:11:54;96094.53;;;13.72;38.79
70589;BME280;58152;49.202;18.744;2023-03-26T15:14:41;96091.19;;;13.70;39.05
70589;BME280;58152;49.202;18.744;2023-03-26T15:20:21;96085.09;;;13.70;37.02
70589;BME280;58152;49.202;18.744;2023-03-26T15:29:20;96072.28;;;13.65;38.52
70589;BME280;58152;49.202;18.744;2023-03-26T15:34:52;96084.34;;;13.68;38.79
70589;BME280;58152;49.202;18.744;2023-03-26T15:45:44;96068.91;;;13.52;38.71
70589;BME280;58152;49.202;18.744;2023-03-26T15:59:20;96065.66;;;13.48;38.39
70589;BME280;58152;49.202;18.744;2023-03-26T16:02:01;96063.59;;;13.41;39.63
70589;BME280;58152;49.202;18.744;2023-03-26T16:10:18;96065.06;;;13.34;40.32
70589;BME280;58152;49.202;18.744;2023-03-26T16:15:39;96076.28;;;13.36;40.43
70589;BME280;58152;49.202;18.744;2023-03-26T16:23:26;96053.91;;;13.30;39.96
70589;BME280;58152;49.202;18.744;2023-03-26T16:36:37;96047.59;;;12.97;42.27
70589;BME280;58152;49.202;18.744;2023-03-26T16:41:32;96045.41;;;12.91;41.96
70589;BME280;58152;49.202;18.744;2023-03-26T16:52:20;96045.41;;;12.91;42.46
70589;BME280;58152;49.202;18.744;2023-03-26T16:54:52;96042.66;;;12.93;43.04
70589;BME280;58152;49.202;18.744;2023-03-26T17:00:47;96030.22;;;12.95;43.15
70589;BME280;58152;49.202;18.744;2023-03-26T17:03:27;96023.41;;;12.92;42.91
70589;BME280;58152;49.202;18.744;2023-03-26T17:11:28;96041.09;;;12.90;43.57
70589;BME280;58152;49.202;18.744;2023-03-26T17:17:16;96029.38;;;12.83;44.03
70589;BME280;58152;49.202;18.744;2023-03-26T17:22:50;96039.03;;;12.83;44.71
70589;BME280;58152;49.202;18.744;2023-03-26T17:28:04;96044.75;;;12.77;45.68
70589;BME280;58152;49.202;18.744;2023-03-26T17:41:04;96087.44;;;12.45;45.46
70589;BME280;58152;49.202;18.744;2023-03-26T17:45:59;96089.69;;;12.38;45.98
70589;BME280;58152;49.202;18.744;2023-03-26T17:48:28;96080.53;;;12.31;46.29
70589;BME280;58152;49.202;18.744;2023-03-26T17:54:21;96069.13;;;12.19;47.44
70589;BME280;58152;49.202;18.744;2023-03-26T17:56:50;96066.94;;;12.13;47.96
70589;BME280;58152;49.202;18.744;2023-03-26T17:59:24;96061.78;;;12.12;47.80
70589;BME280;58152;49.202;18.744;2023-03-26T18:02:03;96087.97;;;12.13;48.79
70589;BME280;58152;49.202;18.744;2023-03-26T18:04:36;96096.81;;;12.12;47.79
70589;BME280;58152;49.202;18.744;2023-03-26T18:07:54;96095.25;;;12.10;48.77
70589;BME280;58152;49.202;18.744;2023-03-26T18:18:48;96093.16;;;12.02;50.05
70589;BME280;58152;49.202;18.744;2023-03-26T18:21:20;96081.91;;;12.00;52.15
70589;BME280;58152;49.202;18.744;2023-03-26T18:23:48;96086.56;;;11.97;50.42
70589;BME280;58152;49.202;18.744;2023-03-26T18:26:35;96075.53;;;11.91;51.26
70589;BME280;58152;49.202;18.744;2023-03-26T18:29:21;96084.84;;;11.95;53.47
70589;BME280;58152;49.202;18.744;2023-03-26T18:31:52;96077.28;;;11.91;50.90
70589;BME280;58152;49.202;18.744;2023-03-26T18:34:19;96068.81;;;11.87;51.18
70589;BME280;58152;49.202;18.744;2023-03-26T18:36:48;96055.75;;;11.86;52.00
70589;BME280;58152;49.202;18.744;2023-03-26T18:39:21;96054.19;;;11.83;52.39
70589;BME280;58152;49.202;18.744;2023-03-26T18:41:50;96048.13;;;11.83;52.62
70589;BME280;58152;49.202;18.744;2023-03-26T18:44:16;96037.78;;;11.80;53.32
70589;BME280;58152;49.202;18.744;2023-03-26T18:46:43;96031.19;;;11.74;53.79
70589;BME280;58152;49.202;18.744;2023-03-26T18:49:14;96028.44;;;11.76;53.59
70589;BME280;58152;49.202;18.744;2023-03-26T18:51:41;96021.72;;;11.71;54.26
70589;BME280;58152;49.202;18.744;2023-03-26T18:54:13;96001.34;;;11.62;53.90
70589;BME280;58152;49.202;18.744;2023-03-26T18:56:42;95991.16;;;11.58;54.01
70589;BME280;58152;49.202;18.744;2023-03-26T18:59:22;95988.03;;;11.53;55.37
70589;BME280;58152;49.202;18.744;2023-03-26T19:01:53;95983.53;;;11.55;54.54
70589;BME280;58152;49.202;18.744;2023-03-26T19:04:22;95981.09;;;11.52;54.90
70589;BME280;58152;49.202;18.744;2023-03-26T19:06:49;95980.47;;;11.48;55.03
70589;BME280;58152;49.202;18.744;2023-03-26T19:09:20;95975.41;;;11.45;55.41
70589;BME280;58152;49.202;18.744;2023-03-26T19:11:48;95964.41;;;11.40;55.16
70589;BME280;58152;49.202;18.744;2023-03-26T19:14:18;95959.16;;;11.40;56.13